createdAt,value
2019-05-15T00:02:23.426Z,12.47
2019-05-15T00:04:52.282Z,12.50
2019-05-15T00:07:20.808Z,12.50
2019-05-15T00:09:49.368Z,12.47
2019-05-15T00:12:18.885Z,12.46
2019-05-15T00:14:48.447Z,12.46
2019-05-15T00:17:19.183Z,12.42
2019-05-15T00:19:48.583Z,12.34
2019-05-15T00:22:18.343Z,12.31
2019-05-15T00:24:48.839Z,12.21
2019-05-15T00:27:20.016Z,12.11
2019-05-15T00:29:48.671Z,12.09
2019-05-15T00:32:18.638Z,12.09
2019-05-15T00:34:48.810Z,12.09
2019-05-15T00:37:18.212Z,11.89
2019-05-15T00:39:48.594Z,11.94
2019-05-15T00:42:19.008Z,11.93
2019-05-15T00:44:49.395Z,11.97
2019-05-15T00:47:18.214Z,11.85
2019-05-15T00:49:48.806Z,11.82
2019-05-15T00:52:18.083Z,11.86
2019-05-15T00:54:48.421Z,11.85
2019-05-15T00:57:19.055Z,11.81
2019-05-15T00:59:48.359Z,11.80
2019-05-15T01:02:17.893Z,11.80
2019-05-15T01:04:47.981Z,11.81
2019-05-15T01:07:18.793Z,11.80
2019-05-15T01:09:48.730Z,11.80
2019-05-15T01:12:18.452Z,11.79
2019-05-15T01:14:48.970Z,11.75
2019-05-15T01:17:18.450Z,11.74
2019-05-15T01:19:48.211Z,11.69
2019-05-15T01:22:19.327Z,11.67
2019-05-15T01:24:48.556Z,11.65
2019-05-15T01:27:18.401Z,11.61
2019-05-15T01:29:49.374Z,11.57
2019-05-15T01:32:19.057Z,11.53
2019-05-15T01:34:49.013Z,11.49
2019-05-15T01:37:18.874Z,11.44
2019-05-15T01:39:48.558Z,11.45
2019-05-15T01:42:18.587Z,11.43
2019-05-15T01:44:48.470Z,11.41
2019-05-15T01:47:19.012Z,11.41
2019-05-15T01:49:49.092Z,11.38
2019-05-15T01:52:18.699Z,11.34
2019-05-15T01:54:48.899Z,11.29
2019-05-15T01:57:18.153Z,11.28
2019-05-15T01:59:54.772Z,11.24
2019-05-15T02:02:18.678Z,11.23
2019-05-15T02:04:48.648Z,11.23
2019-05-15T02:07:18.694Z,11.19
2019-05-15T02:09:49.210Z,11.13
2019-05-15T02:12:19.144Z,11.02
2019-05-15T02:14:48.572Z,10.98
2019-05-15T02:17:18.959Z,10.97
2019-05-15T02:19:48.513Z,10.97
2019-05-15T02:22:18.923Z,10.92
2019-05-15T02:24:48.296Z,10.95
2019-05-15T02:27:18.604Z,10.63
2019-05-15T02:29:49.287Z,10.81
2019-05-15T02:32:19.321Z,10.84
2019-05-15T02:34:50.078Z,10.85
2019-05-15T02:37:19.221Z,10.84
2019-05-15T02:39:49.620Z,10.82
2019-05-15T02:42:19.207Z,10.84
2019-05-15T02:44:49.965Z,10.84
2019-05-15T02:47:19.915Z,10.85
2019-05-15T02:49:48.824Z,10.81
2019-05-15T02:52:19.902Z,10.78
2019-05-15T02:54:49.874Z,10.69
2019-05-15T02:57:19.225Z,10.65
2019-05-15T02:59:49.880Z,10.67
2019-05-15T03:02:19.118Z,10.65
2019-05-15T03:04:48.610Z,10.65
2019-05-15T03:07:19.299Z,10.61
2019-05-15T03:09:49.679Z,10.59
2019-05-15T03:12:19.553Z,10.57
2019-05-15T03:14:49.136Z,10.56
2019-05-15T03:17:19.049Z,10.54
2019-05-15T03:19:49.834Z,10.51
2019-05-15T03:22:19.501Z,10.37
2019-05-15T03:24:50.241Z,10.34
2019-05-15T03:27:19.720Z,10.04
2019-05-15T03:29:49.417Z,10.18
2019-05-15T03:32:32.170Z,10.23
2019-05-15T03:34:55.649Z,10.23
2019-05-15T03:37:22.166Z,10.22
2019-05-15T03:39:51.720Z,10.27
2019-05-15T03:42:19.370Z,10.31
2019-05-15T03:44:50.274Z,10.32
2019-05-15T03:47:19.453Z,10.33
2019-05-15T03:49:49.430Z,10.36
2019-05-15T03:52:19.144Z,10.41
2019-05-15T03:54:49.553Z,10.41
2019-05-15T03:57:22.675Z,10.40
2019-05-15T03:59:48.944Z,10.39
2019-05-15T04:02:19.399Z,10.43
2019-05-15T04:04:50.241Z,10.47
2019-05-15T04:07:18.958Z,10.50
2019-05-15T04:09:49.375Z,10.54
2019-05-15T04:12:19.595Z,10.64
2019-05-15T04:14:49.991Z,10.75
2019-05-15T04:17:19.764Z,10.88
2019-05-15T04:19:49.668Z,11.00
2019-05-15T04:22:19.757Z,11.11
2019-05-15T04:24:49.601Z,11.26
2019-05-15T04:27:19.746Z,11.45
2019-05-15T04:29:49.201Z,10.98
2019-05-15T04:32:20.001Z,11.45
2019-05-15T04:34:48.908Z,11.56
2019-05-15T04:37:18.994Z,11.79
2019-05-15T04:39:49.141Z,12.24
2019-05-15T04:42:20.295Z,12.70
2019-05-15T04:44:49.529Z,12.84
2019-05-15T04:47:19.222Z,13.12
2019-05-15T04:49:50.435Z,13.53
2019-05-15T04:52:19.460Z,13.41
2019-05-15T04:54:49.343Z,13.71
2019-05-15T04:57:19.383Z,14.25
2019-05-15T04:59:49.735Z,14.76
2019-05-15T05:02:26.672Z,14.79
2019-05-15T05:04:49.469Z,14.91
2019-05-15T05:07:18.915Z,15.20
2019-05-15T05:09:48.975Z,15.59
2019-05-15T05:12:19.239Z,16.05
2019-05-15T05:14:48.457Z,16.47
2019-05-15T05:17:19.511Z,16.66
2019-05-15T05:19:47.867Z,16.82
2019-05-15T05:22:18.747Z,16.90
2019-05-15T05:24:47.830Z,15.79
2019-05-15T05:27:18.275Z,16.56
2019-05-15T05:29:48.034Z,16.62
2019-05-15T05:32:30.527Z,17.16
2019-05-15T05:34:48.325Z,16.39
2019-05-15T05:37:18.471Z,16.03
2019-05-15T05:39:48.345Z,16.17
2019-05-15T05:42:18.489Z,15.93
2019-05-15T05:44:48.850Z,15.73
2019-05-15T05:47:18.320Z,15.99
2019-05-15T05:49:48.846Z,16.16
2019-05-15T05:52:18.547Z,16.42
2019-05-15T05:54:48.992Z,15.92
2019-05-15T05:57:19.372Z,15.68
2019-05-15T05:59:49.000Z,16.71
2019-05-15T06:02:18.611Z,17.77
2019-05-15T06:04:47.966Z,16.44
2019-05-15T06:07:18.527Z,16.95
2019-05-15T06:09:48.650Z,18.45
2019-05-15T06:12:18.847Z,19.42
2019-05-15T06:14:48.502Z,19.79
2019-05-15T06:17:19.076Z,21.75
2019-05-15T06:19:48.148Z,22.06
2019-05-15T06:22:18.799Z,21.71
2019-05-15T06:24:48.511Z,22.23
2019-05-15T06:27:17.188Z,24.44
2019-05-15T06:29:45.700Z,21.56
2019-05-15T06:32:14.205Z,22.77
2019-05-15T06:34:42.709Z,22.71
2019-05-15T06:37:11.209Z,20.81
2019-05-15T06:39:39.728Z,23.37
2019-05-15T06:42:08.805Z,22.50
2019-05-15T06:44:38.844Z,22.97
2019-05-15T06:47:08.161Z,27.69
2019-05-15T06:49:37.826Z,27.08
2019-05-15T06:52:08.659Z,30.11
2019-05-15T06:54:37.776Z,25.70
2019-05-15T06:57:09.111Z,27.82
2019-05-15T06:59:38.956Z,29.28
2019-05-15T07:02:08.141Z,25.34
2019-05-15T07:04:38.340Z,23.49
2019-05-15T07:07:10.674Z,23.43
2019-05-15T07:09:38.002Z,24.53
2019-05-15T07:12:08.012Z,24.94
2019-05-15T07:14:37.952Z,22.18
2019-05-15T07:17:09.173Z,21.74
2019-05-15T07:19:39.258Z,21.29
2019-05-15T07:22:09.191Z,22.17
2019-05-15T07:24:38.369Z,21.45
2019-05-15T07:27:07.970Z,22.46
2019-05-15T07:29:38.553Z,21.81
2019-05-15T07:32:08.031Z,21.42
2019-05-15T07:34:37.913Z,21.55
2019-05-15T07:37:09.604Z,22.53
2019-05-15T07:39:38.189Z,23.03
2019-05-15T07:42:08.597Z,21.92
2019-05-15T07:44:38.884Z,20.41
2019-05-15T07:47:08.848Z,20.37
2019-05-15T07:49:38.803Z,19.31
2019-05-15T07:52:08.640Z,19.68
2019-05-15T07:54:38.336Z,21.49
2019-05-15T07:57:08.873Z,22.22
2019-05-15T07:59:38.678Z,20.26
2019-05-15T08:02:08.391Z,18.77
2019-05-15T08:04:38.055Z,21.24
2019-05-15T08:07:08.977Z,21.85
2019-05-15T08:09:39.149Z,24.10
2019-05-15T08:12:08.257Z,23.47
2019-05-15T08:14:38.747Z,24.93
2019-05-15T08:17:08.700Z,25.75
2019-05-15T08:19:38.387Z,25.32
2019-05-15T08:22:08.912Z,27.55
2019-05-15T08:24:39.207Z,26.97
2019-05-15T08:27:08.339Z,25.47
2019-05-15T08:29:38.355Z,23.88
2019-05-15T08:32:08.419Z,23.00
2019-05-15T08:34:38.644Z,25.43
2019-05-15T08:37:07.951Z,25.37
2019-05-15T08:39:38.153Z,21.48
2019-05-15T08:42:07.995Z,20.64
2019-05-15T08:44:38.657Z,20.77
2019-05-15T08:47:08.171Z,19.80
2019-05-15T08:49:41.055Z,21.17
2019-05-15T08:52:09.990Z,24.88
2019-05-15T08:54:38.291Z,24.45
2019-05-15T08:57:08.431Z,26.14
2019-05-15T08:59:38.108Z,24.09
2019-05-15T09:02:07.898Z,24.89
2019-05-15T09:04:38.658Z,23.66
2019-05-15T09:07:09.165Z,22.59
2019-05-15T09:09:38.342Z,23.88
2019-05-15T09:12:08.260Z,25.89
2019-05-15T09:14:38.020Z,28.21
2019-05-15T09:17:08.695Z,28.27
2019-05-15T09:19:38.817Z,24.10
2019-05-15T09:22:09.145Z,23.65
2019-05-15T09:24:37.987Z,22.14
2019-05-15T09:27:09.806Z,21.16
2019-05-15T09:29:38.076Z,21.07
2019-05-15T09:32:08.594Z,21.54
2019-05-15T09:34:47.777Z,21.03
2019-05-15T09:37:08.606Z,19.21
2019-05-15T09:39:38.114Z,19.01
2019-05-15T09:42:08.427Z,19.55
2019-05-15T09:44:39.034Z,18.56
2019-05-15T09:47:09.126Z,19.25
2019-05-15T09:49:39.127Z,19.14
2019-05-15T09:52:09.008Z,19.13
2019-05-15T09:54:38.694Z,18.89
2019-05-15T09:57:10.819Z,18.14
2019-05-15T09:59:39.065Z,20.32
2019-05-15T10:02:09.207Z,19.52
2019-05-15T10:04:38.977Z,19.31
2019-05-15T10:07:08.296Z,19.02
2019-05-15T10:09:38.896Z,18.60
2019-05-15T10:12:09.069Z,19.46
2019-05-15T10:14:38.609Z,21.29
2019-05-15T10:17:09.187Z,21.19
2019-05-15T10:19:38.117Z,19.37
2019-05-15T10:22:09.522Z,19.65
2019-05-15T10:24:36.974Z,19.83
2019-05-15T10:27:05.597Z,20.71
2019-05-15T10:29:34.100Z,23.11
2019-05-15T10:32:02.661Z,24.25
2019-05-15T10:34:31.190Z,22.95
2019-05-15T10:36:59.749Z,21.94
2019-05-15T10:39:28.900Z,23.28
2019-05-15T10:41:57.526Z,23.64
2019-05-15T10:44:28.429Z,24.03
2019-05-15T10:46:58.502Z,24.24
2019-05-15T10:49:28.213Z,21.94
2019-05-15T10:51:56.877Z,20.00
2019-05-15T10:54:25.475Z,20.19
2019-05-15T10:56:53.996Z,19.43
2019-05-15T10:59:22.510Z,19.05
2019-05-15T11:01:51.005Z,20.56
2019-05-15T11:04:19.596Z,21.38
2019-05-15T11:06:49.045Z,20.57
2019-05-15T11:09:18.565Z,19.45
2019-05-15T11:11:51.192Z,18.53
2019-05-15T11:14:18.433Z,18.59
2019-05-15T11:16:48.602Z,19.01
2019-05-15T11:19:17.367Z,18.79
2019-05-15T11:21:48.494Z,18.27
2019-05-15T11:24:16.471Z,18.34
2019-05-15T11:26:45.294Z,18.32
2019-05-15T11:29:13.829Z,18.99
2019-05-15T11:31:42.350Z,18.66
2019-05-15T11:34:12.154Z,18.82
2019-05-15T11:36:40.609Z,18.41
2019-05-15T11:39:09.217Z,18.29
2019-05-15T11:41:38.646Z,19.47
2019-05-15T11:44:07.308Z,18.25
2019-05-15T11:46:35.837Z,18.66
2019-05-15T11:49:04.352Z,18.28
2019-05-15T11:51:32.837Z,17.99
2019-05-15T11:54:01.324Z,18.01
2019-05-15T11:56:29.916Z,18.87
2019-05-15T11:58:58.416Z,19.85
2019-05-15T12:01:28.798Z,20.21
2019-05-15T12:03:58.561Z,19.49
2019-05-15T12:06:29.232Z,18.41
2019-05-15T12:08:59.162Z,18.13
2019-05-15T12:11:36.614Z,18.22
2019-05-15T12:13:59.672Z,18.22
2019-05-15T12:16:29.042Z,18.10
2019-05-15T12:19:08.435Z,18.71
2019-05-15T12:21:28.680Z,18.09
2019-05-15T12:23:59.112Z,18.44
2019-05-15T12:26:29.206Z,18.45
2019-05-15T12:28:58.952Z,18.77
2019-05-15T12:31:27.780Z,18.56
2019-05-15T12:33:58.469Z,18.21
2019-05-15T12:36:47.291Z,18.02
2019-05-15T12:38:56.814Z,18.37
2019-05-15T13:01:29.577Z,18.77
2019-05-15T13:03:58.501Z,18.20
2019-05-15T13:06:28.555Z,18.17
2019-05-15T13:08:59.444Z,17.99
2019-05-15T13:11:28.466Z,18.56
2019-05-15T13:13:59.107Z,18.71
2019-05-15T13:16:28.147Z,18.37
2019-05-15T13:18:58.841Z,18.45
2019-05-15T13:21:29.470Z,19.14
2019-05-15T13:23:58.629Z,19.12
2019-05-15T13:26:27.492Z,19.06
2019-05-15T13:28:58.350Z,18.51
2019-05-15T13:31:28.452Z,18.03
2019-05-15T13:33:58.753Z,17.96
2019-05-15T13:36:28.852Z,17.85
2019-05-15T13:38:57.918Z,18.12
2019-05-15T13:41:28.171Z,18.17
2019-05-15T13:43:58.405Z,17.96
2019-05-15T13:46:29.091Z,18.41
2019-05-15T13:48:59.443Z,17.87
2019-05-15T13:51:29.015Z,17.92
2019-05-15T13:53:57.761Z,18.18
2019-05-15T13:56:26.251Z,17.97
2019-05-15T13:58:54.792Z,18.72
2019-05-15T14:01:23.317Z,18.64
2019-05-15T14:03:51.864Z,18.47
2019-05-15T14:06:20.370Z,18.67
2019-05-15T14:08:49.007Z,18.27
2019-05-15T14:11:21.491Z,17.91
2019-05-15T14:13:48.601Z,18.62
2019-05-15T14:16:19.221Z,18.25
2019-05-15T14:18:48.012Z,18.01
2019-05-15T14:21:18.441Z,17.70
2019-05-15T14:23:47.969Z,18.29
2019-05-15T14:26:20.263Z,17.58
2019-05-15T14:28:48.071Z,17.37
2019-05-15T14:31:18.291Z,17.91
2019-05-15T14:33:48.732Z,18.85
2019-05-15T14:36:18.435Z,19.85
2019-05-15T14:38:48.502Z,19.51
2019-05-15T14:41:18.964Z,19.08
2019-05-15T14:43:48.414Z,18.82
2019-05-15T14:46:18.562Z,18.06
2019-05-15T14:48:49.109Z,17.74
2019-05-15T14:51:19.276Z,17.34
2019-05-15T14:53:48.995Z,17.31
2019-05-15T14:56:18.556Z,17.83
2019-05-15T14:58:48.017Z,17.81
2019-05-15T15:01:18.491Z,18.47
2019-05-15T15:03:48.800Z,18.82
2019-05-15T15:06:18.156Z,18.58
2019-05-15T15:08:48.660Z,18.67
2019-05-15T15:11:17.933Z,18.13
2019-05-15T15:13:46.544Z,18.37
2019-05-15T15:16:15.064Z,18.31
2019-05-15T15:18:43.887Z,17.53
2019-05-15T15:21:12.528Z,17.44
2019-05-15T15:23:41.091Z,17.53
2019-05-15T15:26:09.668Z,17.83
2019-05-15T15:28:40.250Z,17.95
2019-05-15T15:31:08.465Z,17.97
2019-05-15T15:33:39.204Z,18.69
2019-05-15T15:36:08.833Z,18.52
2019-05-15T15:38:43.383Z,18.39
2019-05-15T15:41:08.549Z,17.86
2019-05-15T15:43:38.711Z,17.60
2019-05-15T15:46:08.594Z,17.64
2019-05-15T15:48:39.051Z,17.86
2019-05-15T15:51:09.153Z,17.55
2019-05-15T15:53:39.077Z,17.19
2019-05-15T15:56:10.540Z,16.99
2019-05-15T15:58:38.088Z,16.69
2019-05-15T16:01:08.927Z,16.74
2019-05-15T16:03:38.029Z,16.70
2019-05-15T16:06:06.613Z,16.55
2019-05-15T16:08:48.105Z,16.64
2019-05-15T16:11:05.403Z,16.85
2019-05-15T16:13:33.911Z,16.84
2019-05-15T16:16:02.464Z,17.07
2019-05-15T16:18:30.964Z,16.78
2019-05-15T16:20:59.481Z,16.90
2019-05-15T16:23:28.506Z,17.38
2019-05-15T16:25:58.250Z,17.79
2019-05-15T16:28:28.965Z,18.38
2019-05-15T16:30:58.580Z,18.37
2019-05-15T16:33:28.351Z,18.15
2019-05-15T16:35:58.069Z,17.95
2019-05-15T16:38:28.399Z,17.50
2019-05-15T16:40:58.240Z,17.44
2019-05-15T16:43:28.600Z,17.49
2019-05-15T16:45:58.627Z,17.52
2019-05-15T16:48:29.390Z,17.48
2019-05-15T16:50:58.163Z,17.40
2019-05-15T16:53:28.821Z,17.37
2019-05-15T16:55:58.635Z,17.40
2019-05-15T16:58:29.561Z,16.94
2019-05-15T17:00:58.576Z,16.66
2019-05-15T17:03:28.917Z,16.72
2019-05-15T17:05:58.817Z,17.24
2019-05-15T17:08:28.892Z,17.38
2019-05-15T17:10:58.631Z,17.54
2019-05-15T17:13:28.761Z,17.73
2019-05-15T17:15:58.428Z,17.07
2019-05-15T17:18:27.209Z,16.70
2019-05-15T17:20:55.757Z,16.86
2019-05-15T17:23:24.528Z,16.63
2019-05-15T17:25:53.294Z,16.80
2019-05-15T17:28:21.809Z,16.57
2019-05-15T17:30:50.313Z,16.39
2019-05-15T17:33:18.805Z,16.51
2019-05-15T17:35:48.716Z,16.53
2019-05-15T17:38:18.247Z,16.21
2019-05-15T17:40:48.412Z,16.14
2019-05-15T17:43:18.304Z,16.12
2019-05-15T17:45:48.235Z,16.09
2019-05-15T17:48:19.371Z,15.97
2019-05-15T17:50:51.777Z,16.26
2019-05-15T17:53:18.213Z,16.32
2019-05-15T17:55:47.938Z,16.33
2019-05-15T17:58:16.614Z,15.85
2019-05-15T18:00:45.293Z,15.66
2019-05-15T18:03:13.836Z,15.53
2019-05-15T18:05:42.359Z,15.55
2019-05-15T18:08:10.880Z,15.37
2019-05-15T18:10:39.404Z,15.45
2019-05-15T18:13:08.898Z,15.26
2019-05-15T18:15:38.536Z,15.30
2019-05-15T18:18:09.422Z,15.13
2019-05-15T18:20:38.403Z,15.20
2019-05-15T18:23:08.443Z,15.03
2019-05-15T18:25:38.439Z,14.91
2019-05-15T18:28:08.551Z,14.80
2019-05-15T18:30:38.854Z,14.69
2019-05-15T18:33:08.726Z,14.61
2019-05-15T18:35:38.593Z,14.73
2019-05-15T18:38:08.593Z,14.42
2019-05-15T18:40:38.417Z,14.42
2019-05-15T18:43:09.780Z,14.29
2019-05-15T18:45:38.353Z,14.22
2019-05-15T18:48:07.007Z,14.11
2019-05-15T18:50:37.728Z,14.10
2019-05-15T18:53:08.746Z,14.07
2019-05-15T18:55:38.585Z,13.97
2019-05-15T18:58:08.334Z,14.03
2019-05-15T19:00:39.696Z,13.94
2019-05-15T19:03:19.224Z,13.74
2019-05-15T19:05:38.650Z,13.82
2019-05-15T19:08:08.436Z,13.69
2019-05-15T19:10:38.638Z,13.67
2019-05-15T19:13:08.547Z,13.66
2019-05-15T19:15:38.069Z,13.68
2019-05-15T19:18:08.036Z,13.80
2019-05-15T19:20:38.855Z,13.65
2019-05-15T19:23:08.078Z,13.48
2019-05-15T19:25:36.865Z,13.52
2019-05-15T19:28:05.395Z,13.54
2019-05-15T19:30:34.061Z,13.70
2019-05-15T19:33:02.730Z,13.47
2019-05-15T19:35:31.324Z,13.50
2019-05-15T19:37:59.987Z,13.45
2019-05-15T19:40:28.724Z,13.50
2019-05-15T19:42:59.012Z,13.69
2019-05-15T19:45:28.350Z,13.45
2019-05-15T19:47:58.792Z,13.65
2019-05-15T19:50:28.688Z,13.54
2019-05-15T19:52:59.090Z,13.85
2019-05-15T19:55:28.191Z,13.57
2019-05-15T19:57:58.759Z,13.32
2019-05-15T20:00:28.579Z,13.66
2019-05-15T20:02:58.089Z,13.68
2019-05-15T20:05:28.959Z,13.70
2019-05-15T20:07:58.762Z,13.82
2019-05-15T20:10:29.308Z,13.78
2019-05-15T20:12:58.524Z,13.93
2019-05-15T20:15:28.514Z,14.09
2019-05-15T20:17:57.317Z,14.23
2019-05-15T20:20:28.038Z,14.28
2019-05-15T20:22:59.370Z,14.40
2019-05-15T20:25:27.780Z,14.44
2019-05-15T20:27:56.997Z,14.50
2019-05-15T20:30:25.619Z,14.47
2019-05-15T20:32:54.134Z,14.29
2019-05-15T20:35:22.660Z,14.46
2019-05-15T20:37:51.509Z,14.43
2019-05-15T20:40:20.036Z,14.40
2019-05-15T20:42:48.866Z,14.44
2019-05-15T20:45:18.494Z,14.64
2019-05-15T20:47:47.156Z,14.62
2019-05-15T20:50:15.679Z,14.72
2019-05-15T20:52:44.245Z,14.73
2019-05-15T20:55:13.144Z,14.84
2019-05-15T20:57:41.696Z,14.66
2019-05-15T21:00:12.816Z,14.55
2019-05-15T21:02:41.337Z,14.65
2019-05-15T21:05:09.843Z,14.64
2019-05-15T21:07:42.739Z,14.68
2019-05-15T21:10:10.257Z,14.74
2019-05-15T21:12:41.040Z,14.79
2019-05-15T21:15:09.999Z,14.83
2019-05-15T21:17:39.399Z,14.96
2019-05-15T21:20:09.594Z,14.96
2019-05-15T21:22:40.323Z,14.93
2019-05-15T21:25:10.770Z,14.94
2019-05-15T21:27:42.384Z,14.95
2019-05-15T21:30:09.549Z,14.92
2019-05-15T21:32:38.396Z,14.79
2019-05-15T21:35:09.095Z,14.82
2019-05-15T21:37:38.918Z,14.65
2019-05-15T21:40:08.706Z,14.57
2019-05-15T21:42:39.000Z,14.58
2019-05-15T21:45:13.932Z,14.45
2019-05-15T21:47:38.771Z,14.43
2019-05-15T21:50:08.089Z,14.33
2019-05-15T21:52:38.961Z,14.33
2019-05-15T21:55:09.206Z,14.36
2019-05-15T21:57:40.076Z,14.40
2019-05-15T22:00:12.788Z,14.33
2019-05-15T22:02:41.309Z,14.25
2019-05-15T22:05:09.858Z,14.17
2019-05-15T22:07:38.910Z,14.22
2019-05-15T22:10:10.414Z,14.30
2019-05-15T22:12:37.815Z,14.27
2019-05-15T22:15:06.822Z,14.10
2019-05-15T22:17:38.723Z,13.90
2019-05-15T22:20:08.661Z,13.90
2019-05-15T22:22:37.492Z,13.84
2019-05-15T22:25:08.541Z,13.86
2019-05-15T22:27:38.296Z,13.85
2019-05-15T22:30:08.247Z,13.82
2019-05-15T22:32:41.243Z,13.84
2019-05-15T22:35:13.385Z,13.78
2019-05-15T22:37:38.783Z,13.83
2019-05-15T22:40:08.915Z,13.78
2019-05-15T22:42:39.058Z,13.69
2019-05-15T22:45:11.599Z,13.66
2019-05-15T22:47:39.157Z,13.57
2019-05-15T22:50:08.460Z,13.47
2019-05-15T22:52:38.973Z,13.40
2019-05-15T22:55:07.327Z,13.44
2019-05-15T22:57:35.834Z,13.45
2019-05-15T23:00:04.682Z,13.52
2019-05-15T23:02:33.660Z,13.61
2019-05-15T23:05:02.165Z,13.70
2019-05-15T23:07:30.667Z,13.37
2019-05-15T23:09:59.415Z,13.15
2019-05-15T23:12:28.738Z,13.57
2019-05-15T23:14:57.904Z,13.73
2019-05-15T23:17:27.728Z,13.93
2019-05-15T23:19:58.195Z,14.08
2019-05-15T23:22:27.923Z,14.18
2019-05-15T23:24:58.506Z,14.30
2019-05-15T23:27:28.728Z,14.42
2019-05-15T23:29:58.221Z,14.49
2019-05-15T23:32:28.836Z,14.51
2019-05-15T23:34:58.408Z,14.48
2019-05-15T23:37:28.084Z,14.47
2019-05-15T23:39:57.995Z,14.47
2019-05-15T23:42:28.991Z,14.47
2019-05-15T23:44:56.905Z,14.49
2019-05-15T23:47:25.415Z,14.55
2019-05-15T23:49:53.954Z,14.56
2019-05-15T23:52:22.469Z,14.58
2019-05-15T23:54:50.988Z,14.56
2019-05-15T23:57:19.497Z,14.49
2019-05-15T23:59:48.017Z,14.42
